Terminal Aerodrome Forecast
Issued by NWS

Home | Current Version | Previous Version | Text Only | Print | Product List | Glossary On
Versions: 1 2 3 4 5 6 7 8 9 10 11 12 13
000
FTUS43 KOAX 031134
TAFCDR
TAF
KCDR 031134Z 0312/0412 VRB03KT P6SM FEW150
     FM031500 05014G23KT P6SM SCT150
     FM040200 07010KT P6SM BKN070=

USA.gov is the U.S. government's official web portal to all federal, state and local government web resources and services.